Flight Track Log - Related Links

Times and Time Zones

All times are in EDT time to prevent confusion due to time zone crossing. See the UAL1021 flight status page for this flight to view local times or setup timezone preferences in your user account.

Time Position Orientation Groundspeed Altitude Reporting Facility
EDT Latitude Longitude Course Direction KTS MPH feet Rate Location/Type
Sun 06:21:43 PM 40.6603 -74.1824 37° Northeast 181 208 1,000  Level FlightAware ADS-B
Sun 06:21:58 PM 40.6479 -74.1841 186° South 190 219 1,200 1,143 Climbing FlightAware ADS-B
Sun 06:22:04 PM 40.6425 -74.1874 205° Southwest 198 228 1,400 2,087 Climbing FlightAware ADS-B
Sun 06:22:21 PM 40.6283 -74.1959 204° Southwest 203 234 2,000 1,592 Climbing FlightAware ADS-B
Sun 06:22:53 PM 40.6011 -74.2219 216° Southwest 208 239 2,700 1,463 Climbing FlightAware ADS-B
Sun 06:23:02 PM 40.5930 -74.2300 217° Southwest 243 280 3,000 2,000 Climbing FlightAware ADS-B
Sun 06:23:20 PM 40.5755 -74.2474 217° Southwest 260 299 3,600 2,400 Climbing FlightAware ADS-B
Sun 06:23:37 PM 40.5593 -74.2630 216° Southwest 264 304 4,400 2,571 Climbing FlightAware ADS-B
Sun 06:24:02 PM 40.5279 -74.2683 187° South 283 326 5,400 2,323 Climbing FlightAware ADS-B
Sun 06:24:08 PM 40.5212 -74.2656 163° South 287 330 5,600 1,500 Climbing FlightAware ADS-B
Sun 06:24:14 PM 40.5135 -74.2617 159° South 288 331 5,700 353 Climbing FlightAware ADS-B
Sun 06:24:25 PM 40.4997 -74.2546 159° South 289 333 5,700  Level FlightAware ADS-B
Sun 06:24:33 PM 40.4894 -74.2492 158° South 290 334 5,700  Level FlightAware ADS-B
Sun 06:24:41 PM 40.4799 -74.2443 159° South 290 334 5,700  Level FlightAware ADS-B
Sun 06:24:51 PM 40.4677 -74.2378 158° South 289 333 5,700  Level FlightAware ADS-B
Sun 06:25:03 PM 40.4529 -74.2302 159° South 289 333 5,700  Level FlightAware ADS-B
Sun 06:25:25 PM 40.4244 -74.2161 159° South 287 330 5,700  Level FlightAware ADS-B
Sun 06:25:42 PM 40.4037 -74.2065 161° South 287 330 5,700  Level FlightAware ADS-B
Sun 06:25:57 PM 40.3849 -74.1973 160° South 287 330 5,700 387 Level FlightAware ADS-B
Sun 06:26:13 PM 40.3651 -74.1871 159° South 290 334 5,900 1,500 Climbing FlightAware ADS-B
Sun 06:26:29 PM 40.3458 -74.1771 158° South 290 334 6,500 2,609 Climbing FlightAware ADS-B
Sun 06:26:36 PM 40.3369 -74.1728 160° South 288 331 6,900 3,429 Climbing FlightAware ADS-B
Sun 06:26:43 PM 40.3273 -74.1693 164° South 286 329 7,300 2,769 Climbing FlightAware ADS-B
Sun 06:26:49 PM 40.3202 -74.1684 174° South 284 327 7,500 2,400 Climbing FlightAware ADS-B
Sun 06:26:53 PM 40.3148 -74.1689 184° South 283 326 7,700 3,000 Climbing FlightAware ADS-B
Sun 06:26:57 PM 40.3092 -74.1704 192° South 282 325 7,900 2,250 Climbing FlightAware ADS-B
Sun 06:27:01 PM 40.3045 -74.1724 198° South 281 323 8,000 2,250 Climbing FlightAware ADS-B
Sun 06:27:05 PM 40.2991 -74.1756 204° Southwest 282 325 8,200 2,250 Climbing FlightAware ADS-B
Sun 06:27:09 PM 40.2945 -74.1793 212° Southwest 281 323 8,300 2,400 Climbing FlightAware ADS-B
Sun 06:27:15 PM 40.2884 -74.1852 216° Southwest 282 325 8,600 2,348 Climbing FlightAware ADS-B
Sun 06:27:32 PM 40.2712 -74.2024 217° Southwest 285 328 9,200 2,000 Climbing FlightAware ADS-B
Sun 06:28:03 PM 40.2377 -74.2345 216° Southwest 288 331 10,200 1,475 Climbing FlightAware ADS-B
Sun 06:28:33 PM 40.2009 -74.2695 216° Southwest 326 375 10,700 1,455 Climbing FlightAware ADS-B
Sun 06:29:09 PM 40.1544 -74.3136 216° Southwest 351 404 11,800 1,946 Climbing FlightAware ADS-B
Sun 06:29:47 PM 40.1038 -74.3615 216° Southwest 362 417 13,100 1,941 Climbing FlightAware ADS-B
Sun 06:30:17 PM 40.0616 -74.4014 216° Southwest 377 434 14,000 1,839 Climbing FlightAware ADS-B
Sun 06:30:49 PM 40.0163 -74.4443 216° Southwest 383 441 15,000 1,781 Climbing FlightAware ADS-B
Sun 06:31:21 PM 39.9702 -74.4877 216° Southwest 392 451 15,900 1,859 Climbing FlightAware ADS-B
Sun 06:32:00 PM 39.9124 -74.5422 216° Southwest 399 459 17,200 1,971 Climbing FlightAware ADS-B
Sun 06:32:31 PM 39.8660 -74.5859 216° Southwest 402 463 18,200 1,869 Climbing FlightAware ADS-B
Sun 06:33:01 PM 39.8191 -74.6298 216° Southwest 405 466 19,100 1,548 Climbing FlightAware ADS-B
Sun 06:33:33 PM 39.7705 -74.6752 216° Southwest 415 478 19,800 1,313 Climbing FlightAware ADS-B
Sun 06:34:05 PM 39.7196 -74.7227 216° Southwest 425 489 20,500 1,385 Climbing FlightAware ADS-B
Sun 06:34:25 PM 39.6861 -74.7512 213° Southwest 430 495 21,000 1,500 Climbing FlightAware ADS-B
Sun 06:34:33 PM 39.6730 -74.7602 208° Southwest 431 496 21,200 1,421 Climbing FlightAware ADS-B
Sun 06:35:03 PM 39.6178 -74.7922 204° Southwest 436 502 21,900 1,400 Climbing FlightAware ADS-B
Sun 06:35:33 PM 39.5618 -74.8242 204° Southwest 442 509 22,600 1,429 Climbing FlightAware ADS-B
Sun 06:36:06 PM 39.4990 -74.8602 204° Southwest 448 516 23,400 1,406 Climbing FlightAware ADS-B
Sun 06:36:37 PM 39.4400 -74.8940 204° Southwest 452 520 24,100 1,355 Climbing FlightAware ADS-B
Sun 06:37:08 PM 39.3808 -74.9280 204° Southwest 455 524 24,800 1,258 Climbing FlightAware ADS-B
Sun 06:37:39 PM 39.3209 -74.9621 204° Southwest 458 527 25,400 1,742 Climbing FlightAware ADS-B
Sun 06:38:10 PM 39.2610 -74.9963 204° Southwest 447 514 26,600 1,839 Climbing FlightAware ADS-B
Sun 06:38:41 PM 39.2040 -75.0287 204° Southwest 447 514 27,300 1,164 Climbing FlightAware ADS-B
Sun 06:39:17 PM 39.1336 -75.0686 204° Southwest 453 521 27,900 985 Climbing FlightAware ADS-B
Sun 06:39:48 PM 39.0748 -75.1019 204° Southwest 457 526 28,400 1,048 Climbing FlightAware ADS-B
Sun 06:40:20 PM 39.0128 -75.1370 204° Southwest 461 531 29,000 1,034 Climbing FlightAware ADS-B
Sun 06:40:46 PM 38.9594 -75.1596 198° South 464 534 29,400 842 Climbing FlightAware ADS-B
Sun 06:41:17 PM 38.8952 -75.1797 194° South 466 536 29,800 791 Climbing FlightAware ADS-B
Sun 06:42:17 PM 38.7680 -75.2190 194° South 475 547 30,600 811 Climbing FlightAware ADS-B
Sun 06:42:31 PM 38.7374 -75.2286 194° South 469 540 30,800 792 Climbing FlightAware ADS-B
Sun 06:43:10 PM 38.6538 -75.2549 194° South 483 556 31,300 706 Climbing FlightAware ADS-B
Sun 06:43:56 PM 38.5587 -75.3049 202° Southwest 487 560 31,800 553 Climbing FlightAware ADS-B
Sun 06:44:26 PM 38.4967 -75.3404 204° Southwest 488 562 32,000 179 Climbing FlightAware ADS-B
Sun 06:45:03 PM 38.4197 -75.3845 204° Southwest 490 564 32,000  Level FlightAware ADS-B
Sun 06:45:52 PM 38.3185 -75.4423 204° Southwest 490 564 32,000  Level FlightAware ADS-B
Sun 06:46:23 PM 38.2550 -75.4785 204° Southwest 490 564 32,000  Level FlightAware ADS-B
Sun 06:46:59 PM 38.1793 -75.5213 204° Southwest 490 564 32,000  Level FlightAware ADS-B
Sun 06:47:49 PM 38.0800 -75.5780 204° Southwest 481 554 32,000  Level FlightAware ADS-B
Sun 06:48:12 PM 38.0302 -75.6061 204° Southwest 490 564 32,000 97 Level FlightAware ADS-B
Sun 06:48:51 PM 37.9494 -75.6505 203° Southwest 490 564 32,100 414 Climbing FlightAware ADS-B
Sun 06:49:10 PM 37.9081 -75.6666 197° South 490 564 32,400 982 Climbing FlightAware ADS-B
Sun 06:49:46 PM 37.8292 -75.6949 196° South 487 560 33,000 918 Climbing FlightAware ADS-B
Sun 06:50:35 PM 37.7320 -75.7290 196° South 484 557 33,700 667 Climbing FlightAware ADS-B
Sun 06:51:16 PM 37.6390 -75.7620 196° South 481 554 34,000 209 Climbing FlightAware ADS-B
Sun 06:52:01 PM 37.5400 -75.7970 196° South 487 560 34,000  Level FlightAware ADS-B
Sun 06:52:35 PM 37.4690 -75.8220 196° South 488 562 34,000  Level FlightAware ADS-B
Sun 06:53:29 PM 37.3470 -75.8650 196° South 481 554 34,000  Level FlightAware ADS-B
Sun 06:54:16 PM 37.2550 -75.8970 195° South 483 556 34,000  Level FlightAware ADS-B
Sun 06:55:46 PM 37.0560 -75.9670 196° South 485 558 34,000  Level FlightAware ADS-B
Sun 06:56:23 PM 36.9650 -75.9990 196° South 493 567 34,000  Level FlightAware ADS-B
Sun 06:57:00 PM 36.8840 -76.0260 195° South 485 558 34,000  Level FlightAware ADS-B
Sun 06:58:04 PM 36.7620 -76.0680 195° South 488 562 34,000  Level FlightAware ADS-B
Sun 06:58:40 PM 36.6950 -76.0900 195° South 488 562 34,000  Level FlightAware ADS-B
Sun 06:59:41 PM 36.5330 -76.1480 196° South 499 574 34,000  Level FlightAware ADS-B
Sun 07:00:16 PM 36.4520 -76.1750 195° South 487 560 34,000  Level FlightAware ADS-B
Sun 07:01:06 PM 36.3420 -76.2130 196° South 487 560 34,000  Level FlightAware ADS-B
Sun 07:01:44 PM 36.2610 -76.2410 196° South 487 560 34,000  Level FlightAware ADS-B
Sun 07:02:29 PM 36.1620 -76.2750 195° South 487 560 34,000  Level FlightAware ADS-B
Sun 07:03:09 PM 36.0750 -76.3040 195° South 487 560 34,000  Level FlightAware ADS-B
Sun 07:03:46 PM 36.0100 -76.3260 195° South 487 560 34,000  Level FlightAware ADS-B
Sun 07:04:22 PM 35.9440 -76.3480 195° South 487 560 34,000  Level FlightAware ADS-B
Sun 07:05:10 PM 35.8550 -76.3770 195° South 487 560 34,000  Level FlightAware ADS-B
Sun 07:05:46 PM 35.7880 -76.3990 195° South 487 560 34,000  Level FlightAware ADS-B
Sun 07:06:34 PM 35.6990 -76.4280 195° South 487 560 34,000  Level FlightAware ADS-B
Sun 07:07:10 PM 35.6330 -76.4500 195° South 487 560 34,000  Level FlightAware ADS-B
Sun 07:07:59 PM 35.5420 -76.4800 195° South 487 560 34,000  Level FlightAware ADS-B
Sun 07:08:35 PM 35.4760 -76.5020 195° South 487 560 34,000  Level FlightAware ADS-B
Sun 07:09:11 PM 35.4090 -76.5240 195° South 487 560 34,000  Level FlightAware ADS-B
Sun 07:09:59 PM 35.3200 -76.5530 195° South 487 560 34,000  Level FlightAware ADS-B
Sun 07:10:35 PM 35.2540 -76.5750 195° South 487 560 34,000  Level FlightAware ADS-B
Sun 07:11:39 PM 35.1350 -76.6140 195° South 487 560 34,000  Level FlightAware ADS-B
Sun 07:12:17 PM 35.0650 -76.6370 195° South 487 560 34,000  Level FlightAware ADS-B
Sun 07:12:53 PM 34.9980 -76.6590 195° South 487 560 34,000  Level FlightAware ADS-B
Sun 07:13:31 PM 34.7358 -76.7497 195° South 493 567 34,000  Level Washington Center
Sun 07:14:31 PM 34.6039 -76.7931 195° South 500 575 34,000  Level Washington Center
Sun 07:15:32 PM 34.4719 -76.8367 195° South 495 570 34,000  Level Washington Center
Sun 07:16:33 PM 34.3400 -76.8822 196° South 495 570 34,000  Level Washington Center
Sun 07:20:13 PM 33.8300 -77.0428 195° South 507 583 34,000  Level Jacksonville Center
Sun 07:21:13 PM 33.6964 -77.0867 195° South 502 578 34,000  Level Jacksonville Center
Sun 07:22:13 PM 33.5608 -77.1281 194° South 497 572 34,000  Level Jacksonville Center
Sun 07:23:13 PM 33.4314 -77.1711 196° South 497 572 34,000  Level Jacksonville Center
Sun 07:24:13 PM 33.2994 -77.2119 195° South 497 572 34,000  Level Jacksonville Center
Sun 07:25:13 PM 33.1681 -77.2550 195° South 492 566 34,000  Level Jacksonville Center
Sun 07:26:13 PM 33.0361 -77.2956 194° South 492 566 34,000  Level Jacksonville Center
Sun 07:27:13 PM 32.9086 -77.3333 194° South 487 560 34,000  Level Jacksonville Center
Sun 07:28:13 PM 32.7769 -77.3758 195° South 487 560 34,000  Level Jacksonville Center
Sun 07:29:13 PM 32.6469 -77.4136 194° South 487 560 34,000  Level Jacksonville Center
Sun 07:30:13 PM 32.5175 -77.4583 196° South 487 560 34,000  Level Jacksonville Center
Sun 07:31:13 PM 32.3875 -77.4956 194° South 487 560 34,000  Level Jacksonville Center
Sun 07:32:13 PM 32.2578 -77.5350 194° South 487 560 34,000  Level Jacksonville Center
Sun 07:33:13 PM 32.1300 -77.5744 195° South 487 560 34,000  Level Jacksonville Center
Sun 07:34:13 PM 31.9961 -77.6164 195° South 487 560 34,000  Level Jacksonville Center
Sun 07:35:13 PM 31.8636 -77.6411 189° South 487 560 34,000  Level Jacksonville Center
Sun 07:36:13 PM 31.7283 -77.6536 184° South 487 560 34,000 -50 Level Jacksonville Center
Sun 07:37:13 PM 31.5969 -77.6564 181° South 479 551 33,900  Descending Jacksonville Center
Sun 07:38:13 PM 31.4617 -77.6639 183° South 484 557 34,000 50 Climbing Jacksonville Center
Sun 07:39:13 PM 31.3286 -77.6761 184° South 478 550 34,000  Level Jacksonville Center
Sun 07:40:13 PM 31.1953 -77.6836 183° South 478 550 34,000  Level Jacksonville Center
Sun 07:41:13 PM 31.0622 -77.6933 184° South 478 550 34,000  Level Jacksonville Center
Sun 07:42:13 PM 30.9267 -77.7008 183° South 478 550 34,000 -32 Level Jacksonville Center
Sun 07:44:18 PM 30.6611 -77.7356 186° South 492 566 33,900 -32 Descending Miami Center
Sun 07:45:18 PM 30.5233 -77.7633 190° South 492 566 33,900 50 Level Miami Center
Sun 07:46:18 PM 30.3983 -77.7961 193° South 492 566 34,000 50 Climbing Miami Center
Sun 07:47:18 PM 30.2667 -77.8286 192° South 485 558 34,000  Level Miami Center
Sun 07:48:18 PM 30.1433 -77.8633 194° South 476 548 34,000  Level Miami Center
Sun 07:49:18 PM 30.0017 -77.8789 185° South 482 555 34,000  Level Miami Center
Sun 07:50:18 PM 29.8761 -77.9111 193° South 482 555 34,000  Level Miami Center
Sun 07:51:18 PM 29.7425 -77.9361 189° South 482 555 34,000 -50 Level Miami Center
Sun 07:52:18 PM 29.6089 -77.9658 191° South 489 563 33,900  Descending Miami Center
Sun 07:53:18 PM 29.4833 -77.9956 192° South 489 563 34,000 50 Climbing Miami Center
Sun 07:54:18 PM 29.3622 -78.0253 192° South 471 542 34,000  Level Miami Center
Sun 07:55:18 PM 29.2244 -78.0453 187° South 477 549 34,000  Level Miami Center
Sun 07:56:18 PM 29.0947 -78.0722 190° South 477 549 34,000 -50 Level Miami Center
Sun 07:57:18 PM 28.9819 -78.0972 191° South 471 542 33,900  Descending Miami Center
Sun 07:58:18 PM 28.8564 -78.1242 191° South 471 542 34,000 50 Climbing Miami Center
Sun 07:59:18 PM 28.7186 -78.1486 189° South 471 542 34,000  Level Miami Center
Sun 08:04:35 PM 27.9970 -78.2900 189° South 486 559 34,000  Level FlightAware ADS-B
Sun 08:05:19 PM 27.8970 -78.3100 190° South 485 558 34,000  Level FlightAware ADS-B
Sun 08:05:58 PM 27.8140 -78.3270 190° South 484 557 34,000  Level FlightAware ADS-B
Sun 08:06:40 PM 27.7240 -78.3450 190° South 474 545 34,000  Level FlightAware ADS-B
Sun 08:07:19 PM 27.6380 -78.3620 190° South 474 545 34,000  Level FlightAware ADS-B
Sun 08:08:02 PM 27.5410 -78.3820 190° South 482 555 34,000  Level FlightAware ADS-B
Sun 08:08:48 PM 27.4570 -78.3980 190° South 482 555 34,000  Level FlightAware ADS-B
Sun 08:09:24 PM 27.3650 -78.4170 190° South 487 560 34,000  Level FlightAware ADS-B
Sun 08:10:19 PM 27.2370 -78.4420 190° South 489 563 34,000  Level FlightAware ADS-B
Sun 08:10:59 PM 27.1480 -78.4600 190° South 490 564 34,000  Level FlightAware ADS-B
Sun 08:12:04 PM 27.0140 -78.4870 190° South 491 565 34,000  Level FlightAware ADS-B
Sun 08:12:41 PM 26.9200 -78.5050 190° South 493 567 34,000  Level FlightAware ADS-B
Sun 08:13:24 PM 26.8220 -78.5250 190° South 487 560 34,000  Level FlightAware ADS-B
Sun 08:14:06 PM 26.7290 -78.5430 190° South 490 564 34,000  Level FlightAware ADS-B
Sun 08:14:53 PM 26.6180 -78.5650 190° South 501 577 34,000  Level FlightAware ADS-B
Sun 08:15:30 PM 26.5300 -78.5820 190° South 501 577 34,000  Level FlightAware ADS-B
Sun 08:16:12 PM 26.4420 -78.6000 190° South 491 565 34,000  Level FlightAware ADS-B
Sun 08:16:49 PM 26.3540 -78.6170 190° South 489 563 34,000  Level FlightAware ADS-B
Sun 08:17:26 PM 26.2700 -78.6330 190° South 490 564 34,000  Level FlightAware ADS-B
Sun 08:18:11 PM 26.1690 -78.6530 190° South 490 564 34,000  Level FlightAware ADS-B
Sun 08:18:50 PM 26.0770 -78.6720 191° South 500 575 34,000  Level FlightAware ADS-B
Sun 08:19:30 PM 25.9870 -78.6990 195° South 497 572 34,000  Level FlightAware ADS-B
Sun 08:20:12 PM 25.8930 -78.7280 196° South 495 570 34,000  Level FlightAware ADS-B
Sun 08:20:48 PM 25.8150 -78.7510 195° South 494 568 34,000  Level FlightAware ADS-B
Sun 08:21:29 PM 25.7270 -78.7780 195° South 486 559 34,000 250 Level FlightAware ADS-B
Sun 08:22:24 PM 25.5970 -78.7890 184° South 495 570 34,400 606 Climbing FlightAware ADS-B
Sun 08:23:08 PM 25.4970 -78.7880 179° South 493 567 35,000 414 Climbing FlightAware ADS-B
Sun 08:23:51 PM 25.4000 -78.7890 181° South 494 568 35,000  Level FlightAware ADS-B
Sun 08:24:32 PM 25.3060 -78.7890 180° South 493 567 35,000  Level FlightAware ADS-B
Sun 08:25:06 PM 25.2320 -78.7900 181° South 492 566 35,000  Level FlightAware ADS-B
Sun 08:25:44 PM 25.1450 -78.7910 181° South 483 556 35,000  Level FlightAware ADS-B
Sun 08:26:27 PM 25.0450 -78.7910 180° South 482 555 35,000  Level FlightAware ADS-B
Sun 08:27:12 PM 24.9460 -78.7920 181° South 481 554 35,000  Level FlightAware ADS-B
Sun 08:27:53 PM 24.8510 -78.7930 181° South 479 551 35,000  Level FlightAware ADS-B
Sun 08:28:36 PM 24.7530 -78.7940 181° South 485 558 35,000  Level FlightAware ADS-B
Sun 08:29:21 PM 24.6530 -78.7950 181° South 484 557 35,000  Level FlightAware ADS-B
Sun 08:29:53 PM 24.5890 -78.7950 180° South 483 556 35,000  Level FlightAware ADS-B
Sun 08:30:35 PM 24.4890 -78.7960 181° South 482 555 35,000  Level FlightAware ADS-B
Sun 08:31:12 PM 24.4190 -78.7960 180° South 482 555 35,000  Level FlightAware ADS-B
Sun 08:32:00 PM 24.3100 -78.7970 180° South 480 552 35,000  Level FlightAware ADS-B
Sun 08:32:36 PM 24.2420 -78.7970 180° South 480 552 35,000  Level FlightAware ADS-B
Sun 08:33:12 PM 24.1740 -78.7970 180° South 480 552 35,000  Level FlightAware ADS-B
Sun 08:34:00 PM 24.0480 -78.7990 181° South 480 552 35,000  Level FlightAware ADS-B
Sun 08:34:36 PM 23.9800 -78.7990 180° South 480 552 35,000  Level FlightAware ADS-B
Sun 08:35:24 PM 23.8890 -78.7990 180° South 480 552 35,000  Level FlightAware ADS-B
Sun 08:36:00 PM 23.8210 -78.7990 180° South 480 552 35,000  Level FlightAware ADS-B
Sun 08:36:48 PM 23.7300 -78.7990 180° South 480 552 35,000  Level FlightAware ADS-B
Sun 08:37:24 PM 23.6630 -78.7990 180° South 480 552 35,000  Level FlightAware ADS-B
Sun 08:38:00 PM 23.5950 -78.7990 180° South 480 552 35,000  Level FlightAware ADS-B
Sun 08:38:48 PM 23.5040 -78.7990 180° South 480 552 35,000  Level FlightAware ADS-B
Sun 08:39:24 PM 23.4360 -78.7990 180° South 480 552 35,000  Level FlightAware ADS-B
Sun 08:40:01 PM 23.3660 -78.7990 180° South 480 552 35,000  Level FlightAware ADS-B
Sun 08:40:38 PM 23.2960 -78.7990 180° South 480 552 35,000  Level FlightAware ADS-B
Sun 08:41:26 PM 23.2060 -78.7990 180° South 480 552 35,000  Level FlightAware ADS-B
Sun 08:42:02 PM 23.1380 -78.7990 180° South 480 552 35,000  Level FlightAware ADS-B
Sun 08:42:51 PM 23.0450 -78.7990 180° South 480 552 35,000  Level FlightAware ADS-B
Sun 08:43:27 PM 22.9770 -78.7990 180° South 480 552 35,000  Level FlightAware ADS-B
Sun 08:46:00 PM 22.6493 -78.7993 180° South  Level FlightAware Approximate
Sun 08:47:00 PM 22.5208 -78.7995 180° South  Level FlightAware Approximate
Sun 08:48:00 PM 22.3923 -78.7996 180° South  Level FlightAware Approximate
Sun 08:49:00 PM 22.2638 -78.7997 180° South  Level FlightAware Approximate
Sun 08:50:00 PM 22.1353 -78.7999 180° South  Level FlightAware Approximate
Sun 08:51:00 PM 22.0068 -78.8000 180° South  Level FlightAware Approximate
Sun 08:52:00 PM 21.8785 -78.8082 184° South  Level FlightAware Approximate
Sun 08:53:00 PM 21.7502 -78.8168 184° South  Level FlightAware Approximate
Sun 08:54:00 PM 21.6220 -78.8255 184° South  Level FlightAware Approximate
Sun 08:55:00 PM 21.4937 -78.8341 184° South  Level FlightAware Approximate
Sun 08:56:00 PM 21.3654 -78.8427 184° South  Level FlightAware Approximate
Sun 08:57:00 PM 21.2372 -78.8513 184° South  Level FlightAware Approximate
Sun 08:58:00 PM 21.1089 -78.8598 184° South  Level FlightAware Approximate
Sun 08:59:00 PM 20.9807 -78.8684 184° South  Level FlightAware Approximate
Sun 09:00:00 PM 20.8524 -78.8769 184° South  Level FlightAware Approximate
Sun 09:01:00 PM 20.7241 -78.8855 184° South  Level FlightAware Approximate
Sun 09:02:00 PM 20.5959 -78.8940 184° South  Level FlightAware Approximate
Sun 09:03:00 PM 20.4676 -78.9025 184° South  Level FlightAware Approximate
Sun 09:04:00 PM 20.3394 -78.9110 184° South  Level FlightAware Approximate
Sun 09:05:00 PM 20.2111 -78.9194 184° South  Level FlightAware Approximate
Sun 09:06:00 PM 20.0828 -78.9279 184° South  Level FlightAware Approximate
Sun 09:07:00 PM 19.9546 -78.9360 183° South  Level FlightAware Approximate
Sun 09:08:00 PM 19.8262 -78.9435 183° South  Level FlightAware Approximate
Sun 09:09:00 PM 19.6979 -78.9509 183° South  Level FlightAware Approximate
Sun 09:10:00 PM 19.5696 -78.9584 183° South  Level FlightAware Approximate
Sun 09:11:00 PM 19.4413 -78.9658 183° South  Level FlightAware Approximate
Sun 09:12:00 PM 19.3130 -78.9732 183° South  Level FlightAware Approximate
Sun 09:13:00 PM 19.1846 -78.9806 183° South  Level FlightAware Approximate
Sun 09:14:00 PM 19.0563 -78.9880 183° South  Level FlightAware Approximate
Sun 09:15:00 PM 18.9280 -78.9954 183° South  Level FlightAware Approximate
Sun 09:16:00 PM 18.7997 -79.0028 183° South  Level FlightAware Approximate
Sun 09:17:00 PM 18.6714 -79.0102 183° South  Level FlightAware Approximate
Sun 09:18:00 PM 18.5430 -79.0175 183° South  Level FlightAware Approximate
Sun 09:19:00 PM 18.4147 -79.0249 183° South  Level FlightAware Approximate
Sun 09:20:00 PM 18.2864 -79.0322 183° South  Level FlightAware Approximate
Sun 09:21:00 PM 18.1581 -79.0396 183° South  Level FlightAware Approximate
Sun 09:22:00 PM 18.0298 -79.0469 183° South  Level FlightAware Approximate
Sun 09:23:00 PM 17.9014 -79.0542 183° South  Level FlightAware Approximate
Sun 09:24:00 PM 17.7731 -79.0614 183° South  Level FlightAware Approximate
Sun 09:25:00 PM 17.6448 -79.0687 183° South  Level FlightAware Approximate
Sun 09:26:00 PM 17.5165 -79.0760 183° South  Level FlightAware Approximate
Sun 09:27:00 PM 17.3882 -79.0833 183° South  Level FlightAware Approximate
Sun 09:28:00 PM 17.2598 -79.0905 183° South  Level FlightAware Approximate
Sun 09:29:00 PM 17.1315 -79.0977 183° South  Level FlightAware Approximate
Sun 09:30:00 PM 17.0032 -79.1050 183° South  Level FlightAware Approximate
Sun 09:31:00 PM 16.8749 -79.1122 183° South  Level FlightAware Approximate
Sun 09:32:00 PM 16.7466 -79.1194 183° South  Level FlightAware Approximate
Sun 09:33:00 PM 16.6182 -79.1266 183° South  Level FlightAware Approximate
Sun 09:34:00 PM 16.4899 -79.1338 183° South  Level FlightAware Approximate
Sun 09:35:00 PM 16.3616 -79.1410 183° South  Level FlightAware Approximate
Sun 09:36:00 PM 16.2333 -79.1482 183° South  Level FlightAware Approximate
Sun 09:37:00 PM 16.1050 -79.1553 183° South  Level FlightAware Approximate
Sun 09:38:00 PM 15.9766 -79.1625 183° South  Level FlightAware Approximate
Sun 09:39:00 PM 15.8483 -79.1696 183° South  Level FlightAware Approximate
Sun 09:40:00 PM 15.7200 -79.1768 183° South  Level FlightAware Approximate
Sun 09:41:00 PM 15.5917 -79.1839 183° South  Level FlightAware Approximate
Sun 09:42:00 PM 15.4633 -79.1910 183° South  Level FlightAware Approximate
Sun 09:43:00 PM 15.3350 -79.1982 183° South  Level FlightAware Approximate
Sun 09:44:00 PM 15.2067 -79.2053 183° South  Level FlightAware Approximate
Sun 09:45:00 PM 15.0784 -79.2123 183° South  Level FlightAware Approximate
Sun 09:46:00 PM 14.9500 -79.2195 183° South  Level FlightAware Approximate
Sun 09:47:00 PM 14.8217 -79.2266 183° South  Level FlightAware Approximate
Sun 09:48:00 PM 14.6934 -79.2338 183° South  Level FlightAware Approximate
Sun 09:49:00 PM 14.5651 -79.2409 183° South  Level FlightAware Approximate
Sun 09:50:00 PM 14.4367 -79.2481 183° South  Level FlightAware Approximate
Sun 09:51:00 PM 14.3084 -79.2552 183° South  Level FlightAware Approximate
Sun 09:52:00 PM 14.1801 -79.2623 183° South  Level FlightAware Approximate
Sun 09:53:00 PM 14.0518 -79.2694 183° South  Level FlightAware Approximate
Sun 09:54:00 PM 13.9195 -79.2768 183° South  Level FlightAware Approximate
Sun 09:55:00 PM 13.7872 -79.2841 183° South  Level FlightAware Approximate
Sun 09:56:00 PM 13.6549 -79.2914 183° South  Level FlightAware Approximate
Sun 09:57:00 PM 13.5225 -79.2987 183° South  Level FlightAware Approximate
Sun 09:58:00 PM 13.3902 -79.3060 183° South  Level FlightAware Approximate
Sun 09:59:00 PM 13.2579 -79.3133 183° South  Level FlightAware Approximate
Sun 10:00:00 PM 13.1256 -79.3206 183° South  Level FlightAware Approximate
Sun 10:01:00 PM 12.9933 -79.3278 183° South  Level FlightAware Approximate
Sun 10:01:21 PM 12.3190 -79.3820 183° South 469 540 35,000  Level FlightAware ADS-B
Sun 10:02:00 PM 12.8610 -79.3351 183° South  Level FlightAware Approximate
Sun 10:02:03 PM 12.1920 -79.3870 182° South 469 540 35,000  Level FlightAware ADS-B
Sun 10:02:49 PM 12.0920 -79.3920 183° South 468 539 35,000  Level FlightAware ADS-B
Sun 10:03:29 PM 12.0040 -79.3960 183° South 468 539 35,000  Level FlightAware ADS-B
Sun 10:04:09 PM 11.9150 -79.4000 183° South 468 539 35,000  Level FlightAware ADS-B
Sun 10:04:52 PM 11.8330 -79.4040 183° South 468 539 35,000  Level FlightAware ADS-B
Sun 10:05:39 PM 11.7150 -79.4100 183° South 470 541 35,000  Level FlightAware ADS-B
Sun 10:06:19 PM 11.6260 -79.4140 183° South 479 551 35,000  Level FlightAware ADS-B
Sun 10:06:59 PM 11.5380 -79.4180 183° South 479 551 35,000  Level FlightAware ADS-B
Sun 10:07:39 PM 11.4470 -79.4230 183° South 480 552 35,000  Level FlightAware ADS-B
Sun 10:08:24 PM 11.3460 -79.4270 182° South 481 554 35,000  Level FlightAware ADS-B
Sun 10:09:04 PM 11.2590 -79.4310 183° South 482 555 35,000  Level FlightAware ADS-B
Sun 10:09:44 PM 11.1690 -79.4360 183° South 481 554 35,000  Level FlightAware ADS-B
Sun 10:10:29 PM 11.0710 -79.4400 182° South 481 554 35,000  Level FlightAware ADS-B
Sun 10:11:23 PM 10.9680 -79.4450 183° South 480 552 35,000  Level FlightAware ADS-B
Sun 10:11:59 PM 10.8680 -79.4500 183° South 470 541 35,000  Level FlightAware ADS-B
Sun 10:12:39 PM 10.7780 -79.4540 182° South 469 540 35,000  Level FlightAware ADS-B
Sun 10:13:19 PM 10.6890 -79.4580 183° South 468 539 35,000  Level FlightAware ADS-B
Sun 10:14:05 PM 10.5920 -79.4630 183° South 467 537 35,000  Level FlightAware ADS-B
Sun 10:14:49 PM 10.4910 -79.4670 182° South 466 536 35,000 -714 Level FlightAware ADS-B
Sun 10:15:29 PM 10.4060 -79.4720 183° South 464 534 34,000 -2,188 Descending FlightAware ADS-B
Sun 10:16:14 PM 10.3040 -79.4780 183° South 464 534 31,900 -2,541 Descending FlightAware ADS-B
Sun 10:16:54 PM 10.2190 -79.4830 183° South 464 534 30,400 -2,259 Descending FlightAware ADS-B
Sun 10:17:39 PM 10.1220 -79.4880 183° South 447 514 28,700 -2,259 Descending FlightAware ADS-B
Sun 10:18:19 PM 10.0390 -79.4930 183° South 437 503 27,200 -2,188 Descending FlightAware ADS-B
Sun 10:19:04 PM 9.9460 -79.4980 183° South 434 499 25,600 -2,163 Descending FlightAware ADS-B
Sun 10:19:45 PM 9.8650 -79.5020 183° South 415 478 24,100 -2,074 Descending FlightAware ADS-B
Sun 10:20:25 PM 9.7890 -79.5070 184° South 405 466 22,800 -1,974 Descending FlightAware ADS-B
Sun 10:21:01 PM 9.7210 -79.5100 182° South 405 466 21,600 -2,053 Descending FlightAware ADS-B
Sun 10:21:41 PM 9.6440 -79.5150 184° South 387 445 20,200 -1,926 Descending FlightAware ADS-B
Sun 10:22:22 PM 9.5720 -79.5190 183° South 385 443 19,000 -1,852 Descending FlightAware ADS-B
Sun 10:23:02 PM 9.5010 -79.5220 182° South 370 426 17,700 -1,906 Descending FlightAware ADS-B
Sun 10:23:47 PM 9.4220 -79.5270 184° South 371 427 16,300 -1,814 Descending FlightAware ADS-B
Sun 10:24:28 PM 9.3530 -79.5310 183° South 355 409 15,100 -1,674 Descending FlightAware ADS-B
Sun 10:25:13 PM 9.2780 -79.5400 187° South 362 417 13,900 -1,694 Descending FlightAware ADS-B
Sun 10:25:53 PM 9.2120 -79.5520 190° South 357 411 12,700 -1,465 Descending FlightAware ADS-B
Sun 10:26:39 PM 9.1400 -79.5640 189° South 329 379 11,800 -1,271 Descending FlightAware ADS-B
Sun 10:27:18 PM 9.0800 -79.5740 189° South 312 359 10,900 -1,215 Descending FlightAware ADS-B
Sun 10:27:58 PM 9.0280 -79.5820 189° South 290 334 10,200 -720 Descending FlightAware ADS-B
Sun 10:28:33 PM 8.9860 -79.5890 189° South 290 334 10,000 -203 Descending FlightAware ADS-B
Sun 10:28:57 PM 8.9590 -79.5930 188° South 290 334 10,000 -2,880 Level FlightAware ADS-B
Sun 10:29:23 PM 8.9110 -79.6020 190° South 295 339 7,600 -3,321 Descending FlightAware ADS-B
Sun 10:29:53 PM 8.8730 -79.6090 190° South 279 321 6,900 -944 Descending FlightAware ADS-B
Sun 10:32:00 PM 8.9462 -79.4445 37° Northeast  Level FlightAware Approximate
Sun 10:33:00 PM 9.0576 -79.3721 31° Northeast  Level FlightAware Approximate
Sun 10:33:08 PM 8.8890 -79.4770 31° Northeast 3,700  Level FlightAware ADS-B
Sun 10:34:09 PM 8.9350 -79.4520 28° Northeast 202 232 3,100 -1,059 Descending FlightAware ADS-B
Sun 10:34:33 PM 8.9530 -79.4420 29° Northeast 169 194 2,200 -1,444 Descending FlightAware ADS-B
Sun 10:35:03 PM 8.9770 -79.4300 26° Northeast 168 193 1,800 -873 Descending FlightAware ADS-B
Sun 10:35:28 PM 8.9940 -79.4230 22° Northeast 161 185 1,400 -933 Descending FlightAware ADS-B
Sun 10:35:48 PM 9.0070 -79.4160 28° Northeast 152 175 1,100 -933 Descending FlightAware ADS-B
Sun 10:36:13 PM 9.0240 -79.4060 30° Northeast 150 173 700 -873 Descending FlightAware ADS-B
Sun 10:36:43 PM 9.0430 -79.3950 30° Northeast 148 170 300 -800 Descending FlightAware ADS-B
Sun 10:37:08 PM 9.0570 -79.3870 29° Northeast 115 132 -720 Descending FlightAware ADS-B
Sun 10:37:38 PM 9.0640 -79.3840 23° Northeast 23 26  Level FlightAware ADS-B
Sun 10:37:48 PM 9.0650 -79.3840 360° North 19 22  Level FlightAware ADS-B
Sun 10:38:08 PM 9.0660 -79.3840 360° North 11 13  Level FlightAware ADS-B
Sun 10:38:18 PM 9.0660 -79.3850 270° West 5 6  Level FlightAware ADS-B

Login

Don't have an account? Register now (free) for customized features, flight alerts, and more!